Página principal
METAR-TAF:

METAR-TAF

Aeroportos :

Aeroporto Internacional de Mehrabad

Teerã, Irão

latitude: 35-41N, longitude: 051-21E, altura: 1204 m

Observação actual do tempo

O boletim foi feito há 6 minutos, às 11:00 UTC
Vento 4 kt de oeste
Temperatura 34°C
Humidade 12%
Pressão 1017 hPa
Visibilidade 10 km ou mais
Poucas nuvensa uma altura de 4000 ft

METAR: OIII 231100Z 27004KT 9999 FEW040 34/01 Q1016 A3002 NOSIG

Hora: 15:36 (11:06 UTC)

Previsão

O boletim foi feito há 5 horas e 36 minutos, às 05:30 UTC
Previsão válida de 23 às 06 UTC a 24 às 12 UTC
Vento 8 kt de este
Visibilidade 10 km ou mais
sem nuvens abaixo de 1500 metros e sem cumulonimbus
Temporariamente
de 23 às 09 UTC a 23 às 15 UTC
Vento 14 kt de sul

TAF: OIII 230530Z 2306/2412 08008KT CAVOK TEMPO 2309/2315 18014KT

Observações e previsões do tempo de mais de 4000 aeroportos (mensagens METAR e TAF).

As estações disponíveis são os pontos amarelos e vermelhos sobre o mapa.

Mova o rato sobre o mapa para ver o nome da estação.

Depois clique no ponto para visualizar as observações e previsões meteorológicas.

Para alterar o mapa : clique nos botões verdes com uma cruz preta para aumentar o zoom; no botão verde com uma pitada de zoom; ou nas setas verdes para mapas adjacentes.


METAR-TAF: